createdAt,value
2022-10-05T00:01:01.514Z,5.30
2022-10-05T00:03:38.916Z,4.70
2022-10-05T00:06:06.102Z,5.03
2022-10-05T00:08:36.401Z,5.15
2022-10-05T00:11:07.418Z,5.10
2022-10-05T00:13:34.734Z,5.00
2022-10-05T00:16:08.188Z,4.50
2022-10-05T00:18:35.206Z,4.80
2022-10-05T00:21:02.155Z,4.25
2022-10-05T00:23:31.922Z,4.68
2022-10-05T00:26:24.361Z,4.53
2022-10-05T00:28:53.699Z,4.93
2022-10-05T00:31:40.841Z,4.72
2022-10-05T00:34:07.731Z,4.13
2022-10-05T00:36:34.645Z,5.03
2022-10-05T00:39:02.981Z,5.10
2022-10-05T00:41:32.841Z,4.55
2022-10-05T00:44:21.107Z,4.80
2022-10-05T00:47:02.289Z,4.30
2022-10-05T00:49:54.142Z,3.83
2022-10-05T00:52:44.163Z,4.25
2022-10-05T00:55:52.513Z,4.38
2022-10-05T00:58:38.076Z,4.90
2022-10-05T01:01:20.173Z,3.90
2022-10-05T01:03:56.078Z,4.65
2022-10-05T01:06:57.318Z,3.63
2022-10-05T01:09:46.628Z,4.10
2022-10-05T01:12:38.160Z,3.80
2022-10-05T01:15:14.306Z,4.43
2022-10-05T01:17:57.241Z,3.75
2022-10-05T01:20:57.344Z,3.90
2022-10-05T01:24:05.815Z,3.65
2022-10-05T01:27:15.859Z,3.55
2022-10-05T01:30:20.262Z,3.35
2022-10-05T01:33:15.694Z,3.45
2022-10-05T01:36:02.531Z,3.55
2022-10-05T01:38:59.607Z,3.80
2022-10-05T01:41:36.530Z,3.38
2022-10-05T01:44:13.130Z,2.85
2022-10-05T01:47:17.338Z,2.90
2022-10-05T01:50:04.580Z,3.13
2022-10-05T01:53:01.818Z,3.03
2022-10-05T01:55:34.147Z,3.00
2022-10-05T01:58:13.469Z,3.10
2022-10-05T02:01:07.997Z,3.00
2022-10-05T02:03:47.254Z,2.58
2022-10-05T02:06:25.346Z,2.70
2022-10-05T02:09:17.414Z,2.78
2022-10-05T02:11:59.574Z,2.80
2022-10-05T02:14:41.401Z,2.92
2022-10-05T02:17:25.792Z,3.42
2022-10-05T02:20:11.955Z,4.60
2022-10-05T02:22:51.217Z,4.68
2022-10-05T02:25:26.837Z,4.28
2022-10-05T02:28:00.713Z,3.92
2022-10-05T02:30:32.751Z,3.83
2022-10-05T02:33:09.180Z,3.70
2022-10-05T02:35:36.976Z,4.57
2022-10-05T02:38:44.746Z,4.18
2022-10-05T02:41:22.194Z,4.03
2022-10-05T02:44:07.006Z,3.65
2022-10-05T02:46:59.697Z,4.30
2022-10-05T02:49:44.773Z,4.25
2022-10-05T02:52:38.271Z,3.45
2022-10-05T02:55:36.647Z,4.00
2022-10-05T02:58:19.338Z,3.78
2022-10-05T03:00:55.709Z,3.40
2022-10-05T03:04:18.484Z,3.40
2022-10-05T03:07:09.634Z,3.38
2022-10-05T03:10:00.898Z,2.70
2022-10-05T03:12:56.811Z,3.22
2022-10-05T03:15:27.255Z,2.92
2022-10-05T03:18:21.811Z,3.22
2022-10-05T03:21:03.468Z,2.60
2022-10-05T03:23:59.751Z,2.92
2022-10-05T03:26:53.968Z,3.28
2022-10-05T03:29:44.097Z,3.00
2022-10-05T03:32:53.863Z,3.95
2022-10-05T03:35:31.177Z,3.78
2022-10-05T03:38:40.986Z,3.95
2022-10-05T03:41:48.438Z,3.88
2022-10-05T03:44:53.477Z,4.63
2022-10-05T03:47:58.998Z,4.18
2022-10-05T03:50:42.313Z,3.88
2022-10-05T04:40:57.978Z,4.82
2022-10-05T04:43:46.889Z,4.05
2022-10-05T04:46:52.255Z,4.13
2022-10-05T04:49:58.596Z,5.35
2022-10-05T04:53:06.758Z,5.32
2022-10-05T04:55:53.646Z,5.22
2022-10-05T04:58:47.845Z,5.00
2022-10-05T05:01:50.063Z,4.35
2022-10-05T05:05:13.183Z,4.93
2022-10-05T05:07:58.238Z,4.20
2022-10-05T05:11:04.582Z,4.38
2022-10-05T05:14:15.409Z,4.03
2022-10-05T05:16:49.651Z,4.30
2022-10-05T05:19:51.283Z,4.18
2022-10-05T05:22:39.624Z,4.43
2022-10-05T05:25:46.923Z,4.70
2022-10-05T05:28:49.742Z,4.40
2022-10-05T05:31:46.584Z,4.50
2022-10-05T05:37:31.131Z,4.70
2022-10-05T05:40:10.187Z,4.47
2022-10-05T05:43:07.794Z,4.55
2022-10-05T05:46:14.606Z,4.68
2022-10-05T05:48:47.243Z,4.53
2022-10-05T05:51:25.767Z,4.72
2022-10-05T05:55:03.698Z,4.15
2022-10-05T06:00:43.239Z,4.65
2022-10-05T06:03:31.502Z,4.53
2022-10-05T06:06:06.808Z,4.65
2022-10-05T06:08:41.752Z,5.82
2022-10-05T06:11:43.115Z,4.50
2022-10-05T06:16:22.068Z,5.88
2022-10-05T06:18:24.777Z,4.75
2022-10-05T06:21:15.347Z,4.88
2022-10-05T06:23:59.550Z,4.72
2022-10-05T06:27:29.752Z,4.18
2022-10-05T06:30:08.001Z,5.07
2022-10-05T06:33:14.654Z,4.63
2022-10-05T06:36:21.206Z,5.30
2022-10-05T06:39:03.164Z,5.30
2022-10-05T06:41:51.650Z,6.60
2022-10-05T06:44:46.129Z,6.05
2022-10-05T06:48:17.412Z,5.93
2022-10-05T06:51:32.009Z,5.97
2022-10-05T06:54:34.637Z,6.07
2022-10-05T06:57:43.232Z,7.70
2022-10-05T07:00:20.973Z,8.68
2022-10-05T07:03:29.506Z,8.95
2022-10-05T07:06:05.832Z,8.77
2022-10-05T07:09:14.126Z,8.90
2022-10-05T07:12:07.734Z,8.15
2022-10-05T07:18:56.057Z,6.97
2022-10-05T07:22:19.825Z,7.25
2022-10-05T07:25:01.112Z,7.20
2022-10-05T07:27:41.512Z,7.78
2022-10-05T07:30:14.478Z,7.40
2022-10-05T07:32:50.854Z,5.78
2022-10-05T07:35:48.493Z,7.13
2022-10-05T07:38:53.854Z,5.82
2022-10-05T07:41:40.325Z,5.55
2022-10-05T07:44:22.784Z,5.50
2022-10-05T07:46:58.418Z,5.07
2022-10-05T07:50:31.762Z,6.60
2022-10-05T07:53:26.684Z,4.50
2022-10-05T07:56:10.116Z,4.93
2022-10-05T07:58:55.248Z,5.25
2022-10-05T08:01:29.720Z,4.63
2022-10-05T08:04:25.198Z,4.38
2022-10-05T08:10:31.498Z,4.35
2022-10-05T08:13:36.206Z,4.05
2022-10-05T08:17:25.618Z,4.10
2022-10-05T08:25:00.365Z,3.53
2022-10-05T08:28:11.329Z,3.72
2022-10-05T08:31:25.989Z,3.30
2022-10-05T08:34:57.711Z,3.85
2022-10-05T08:37:36.376Z,3.95
2022-10-05T08:41:05.986Z,4.28
2022-10-05T08:44:30.030Z,3.30
2022-10-05T08:47:28.130Z,4.05
2022-10-05T08:50:41.092Z,3.63
2022-10-05T08:53:46.236Z,3.65
2022-10-05T08:56:40.813Z,3.60
2022-10-05T08:59:44.790Z,3.47
2022-10-05T09:02:21.185Z,3.20
2022-10-05T09:05:16.591Z,3.28
2022-10-05T09:07:53.302Z,2.92
2022-10-05T09:16:13.485Z,3.28
2022-10-05T09:19:30.931Z,3.30
2022-10-05T09:22:38.891Z,3.00
2022-10-05T09:25:42.807Z,2.88
2022-10-05T09:28:25.082Z,2.80
2022-10-05T09:31:19.448Z,3.22
2022-10-05T09:34:39.167Z,2.88
2022-10-05T09:37:48.006Z,2.13
2022-10-05T09:40:18.093Z,2.50
2022-10-05T09:42:51.240Z,2.42
2022-10-05T09:45:31.357Z,2.15
2022-10-05T09:48:42.706Z,2.08
2022-10-05T09:51:19.760Z,2.33
2022-10-05T09:57:40.821Z,2.78
2022-10-05T10:00:22.320Z,2.33
2022-10-05T10:03:07.195Z,2.50
2022-10-05T10:05:34.004Z,2.33
2022-10-05T10:08:36.610Z,2.55
2022-10-05T10:11:41.645Z,2.58
2022-10-05T10:15:06.912Z,2.53
2022-10-05T10:17:55.588Z,2.28
2022-10-05T10:21:06.580Z,2.25
2022-10-05T10:24:00.054Z,2.60
2022-10-05T10:26:58.328Z,3.00
2022-10-05T10:29:43.375Z,2.47
2022-10-05T10:32:38.765Z,2.03
2022-10-05T10:35:40.764Z,2.55
2022-10-05T10:38:53.103Z,2.10
2022-10-05T10:41:41.004Z,2.08
2022-10-05T10:44:53.048Z,2.08
2022-10-05T10:47:43.698Z,2.83
2022-10-05T10:50:25.755Z,2.97
2022-10-05T10:54:07.481Z,2.33
2022-10-05T10:56:53.123Z,2.10
2022-10-05T10:59:45.834Z,2.40
2022-10-05T11:02:44.457Z,2.00
2022-10-05T11:05:26.360Z,1.98
2022-10-05T11:08:57.118Z,2.65
2022-10-05T11:12:08.290Z,2.20
2022-10-05T11:15:22.900Z,1.98
2022-10-05T11:18:40.890Z,2.03
2022-10-05T11:21:30.422Z,2.17
2022-10-05T11:24:39.210Z,2.05
2022-10-05T11:27:59.664Z,2.25
2022-10-05T11:31:10.926Z,1.73
2022-10-05T11:34:16.044Z,1.85
2022-10-05T11:37:03.669Z,1.95
2022-10-05T11:39:42.455Z,1.70
2022-10-05T11:42:40.348Z,1.90
2022-10-05T11:45:31.780Z,1.75
2022-10-05T11:48:20.263Z,2.03
2022-10-05T11:51:11.974Z,1.13
2022-10-05T11:54:02.894Z,1.85
2022-10-05T11:56:54.688Z,1.50
2022-10-05T11:59:35.715Z,1.58
2022-10-05T12:02:20.343Z,1.90
2022-10-05T12:05:10.770Z,1.77
2022-10-05T12:08:07.925Z,1.67
2022-10-05T12:11:12.360Z,1.63
2022-10-05T12:13:48.871Z,2.40
2022-10-05T12:16:41.869Z,1.85
2022-10-05T12:19:28.229Z,1.80
2022-10-05T12:22:18.142Z,2.20
2022-10-05T12:24:44.922Z,1.80
2022-10-05T12:27:20.470Z,2.10
2022-10-05T12:29:58.866Z,1.90
2022-10-05T12:33:13.178Z,1.98
2022-10-05T12:35:55.723Z,2.00
2022-10-05T12:39:05.139Z,1.58
2022-10-05T12:42:07.369Z,1.85
2022-10-05T12:45:06.010Z,1.90
2022-10-05T12:48:01.228Z,1.77
2022-10-05T12:53:24.311Z,1.77
2022-10-05T12:56:21.650Z,2.05
2022-10-05T12:59:26.518Z,1.70
2022-10-05T13:02:16.627Z,2.00
2022-10-05T13:04:58.856Z,2.20
2022-10-05T13:07:46.940Z,1.80
2022-10-05T13:10:45.687Z,2.40
2022-10-05T13:13:55.581Z,2.05
2022-10-05T13:16:54.828Z,2.20
2022-10-05T13:19:41.919Z,2.20
2022-10-05T13:22:41.043Z,2.88
2022-10-05T13:25:13.693Z,2.30
2022-10-05T13:28:12.366Z,2.03
2022-10-05T13:30:51.468Z,2.10
2022-10-05T13:34:07.566Z,1.95
2022-10-05T13:39:47.035Z,2.40
2022-10-05T13:42:40.738Z,3.10
2022-10-05T13:45:20.281Z,2.22
2022-10-05T13:47:58.411Z,2.60
2022-10-05T13:50:34.130Z,2.10
2022-10-05T13:53:28.388Z,2.20
2022-10-05T13:56:05.677Z,2.60
2022-10-05T13:58:41.190Z,2.38
2022-10-05T14:01:47.793Z,2.70
2022-10-05T14:04:27.446Z,2.75
2022-10-05T14:06:54.499Z,2.28
2022-10-05T14:09:30.473Z,2.60
2022-10-05T14:12:03.141Z,2.60
2022-10-05T14:14:42.134Z,2.65
2022-10-05T14:17:35.589Z,2.67
2022-10-05T14:20:25.007Z,2.30
2022-10-05T14:23:26.960Z,2.78
2022-10-05T14:25:54.428Z,2.42
2022-10-05T14:28:38.457Z,2.53
2022-10-05T14:31:26.876Z,2.90
2022-10-05T14:33:53.891Z,3.00
2022-10-05T14:36:43.922Z,2.55
2022-10-05T14:39:14.139Z,2.70
2022-10-05T14:41:49.437Z,2.65
2022-10-05T14:44:28.907Z,2.47
2022-10-05T14:47:02.648Z,2.58
2022-10-05T14:49:37.100Z,2.42
2022-10-05T14:52:32.349Z,2.80
2022-10-05T14:55:23.108Z,2.65
2022-10-05T14:58:27.595Z,2.78
2022-10-05T15:01:14.724Z,2.60
2022-10-05T15:04:12.867Z,2.50
2022-10-05T15:06:55.219Z,2.88
2022-10-05T15:10:19.222Z,2.83
2022-10-05T15:12:48.395Z,3.08
2022-10-05T15:15:39.740Z,2.45
2022-10-05T15:18:13.489Z,2.65
2022-10-05T15:21:24.796Z,2.85
2022-10-05T15:24:20.132Z,2.28
2022-10-05T15:27:01.209Z,2.78
2022-10-05T15:29:52.231Z,3.40
2022-10-05T15:32:43.207Z,2.67
2022-10-05T15:35:35.222Z,2.80
2022-10-05T15:38:21.221Z,2.55
2022-10-05T15:41:14.847Z,2.90
2022-10-05T15:44:14.392Z,2.42
2022-10-05T15:46:44.153Z,2.85
2022-10-05T15:49:26.170Z,3.33
2022-10-05T15:52:03.629Z,2.70
2022-10-05T15:54:50.773Z,3.72
2022-10-05T16:02:00.562Z,3.25
2022-10-05T16:04:51.612Z,2.53
2022-10-05T16:07:51.149Z,3.35
2022-10-05T16:10:24.089Z,3.20
2022-10-05T16:13:34.053Z,3.35
2022-10-05T16:16:25.714Z,3.45
2022-10-05T16:19:36.213Z,3.08
2022-10-05T16:22:50.999Z,3.35
2022-10-05T16:25:59.715Z,4.57
2022-10-05T16:29:04.046Z,3.30
2022-10-05T16:31:56.483Z,3.15
2022-10-05T16:34:57.459Z,3.10
2022-10-05T16:38:08.990Z,3.20
2022-10-05T16:40:50.638Z,4.20
2022-10-05T16:43:45.925Z,3.33
2022-10-05T16:46:27.667Z,3.28
2022-10-05T16:49:22.375Z,3.70
2022-10-05T16:52:02.585Z,3.75
2022-10-05T16:54:48.873Z,4.35
2022-10-05T16:57:30.887Z,3.45
2022-10-05T17:00:19.648Z,3.67
2022-10-05T17:03:10.202Z,3.20
2022-10-05T17:05:55.657Z,4.32
2022-10-05T17:08:49.674Z,4.13
2022-10-05T17:11:50.002Z,3.90
2022-10-05T17:14:43.916Z,3.95
2022-10-05T17:17:44.840Z,4.38
2022-10-05T17:20:40.204Z,4.07
2022-10-05T17:23:36.398Z,4.15
2022-10-05T17:26:41.173Z,4.47
2022-10-05T17:29:30.659Z,4.30
2022-10-05T17:32:10.823Z,3.97
2022-10-05T17:35:00.728Z,3.92
2022-10-05T17:37:27.504Z,4.43
2022-10-05T17:39:57.174Z,4.35
2022-10-05T17:42:28.741Z,4.43
2022-10-05T17:45:20.278Z,4.05
2022-10-05T17:48:05.009Z,4.63
2022-10-05T17:51:07.243Z,4.57
2022-10-05T17:53:54.061Z,5.20
2022-10-05T17:56:22.982Z,4.97
2022-10-05T17:58:55.590Z,4.35
2022-10-05T18:01:40.397Z,4.82
2022-10-05T18:04:13.426Z,4.70
2022-10-05T18:06:48.006Z,4.65
2022-10-05T18:09:21.351Z,4.43
2022-10-05T18:12:10.065Z,5.28
2022-10-05T18:15:07.824Z,4.97
2022-10-05T18:17:45.568Z,4.97
2022-10-05T18:20:31.937Z,4.32
2022-10-05T18:23:09.409Z,4.60
2022-10-05T18:25:56.127Z,4.60
2022-10-05T18:28:44.689Z,5.22
2022-10-05T18:31:51.974Z,4.75
2022-10-05T18:34:43.213Z,5.53
2022-10-05T18:38:08.797Z,4.90
2022-10-05T18:41:44.032Z,4.50
2022-10-05T18:44:41.609Z,4.35
2022-10-05T18:47:45.183Z,4.75
2022-10-05T18:50:27.470Z,4.45
2022-10-05T18:53:20.610Z,4.53
2022-10-05T18:56:03.572Z,4.60
2022-10-05T18:59:03.108Z,5.07
2022-10-05T19:02:01.927Z,4.10
2022-10-05T19:05:00.679Z,4.72
2022-10-05T19:08:03.288Z,5.00
2022-10-05T19:10:42.056Z,4.47
2022-10-05T19:13:41.677Z,4.53
2022-10-05T19:16:50.205Z,4.38
2022-10-05T19:19:33.261Z,4.57
2022-10-05T19:22:43.527Z,4.68
2022-10-05T19:25:40.061Z,4.72
2022-10-05T19:28:32.701Z,5.20
2022-10-05T19:31:18.497Z,5.07
2022-10-05T19:34:16.684Z,5.10
2022-10-05T19:37:10.042Z,5.57
2022-10-05T19:39:58.821Z,5.60
2022-10-05T19:42:38.072Z,4.95
2022-10-05T19:45:29.637Z,5.43
2022-10-05T19:48:46.319Z,5.15
2022-10-05T19:51:29.479Z,4.85
2022-10-05T19:54:02.200Z,4.50
2022-10-05T19:56:34.346Z,4.70
2022-10-05T19:59:28.309Z,5.70
2022-10-05T20:01:58.642Z,4.68
2022-10-05T20:04:54.771Z,5.60
2022-10-05T20:07:22.987Z,4.55
2022-10-05T20:10:17.550Z,4.72
2022-10-05T20:12:57.599Z,4.63
2022-10-05T20:15:52.717Z,5.60
2022-10-05T20:19:03.339Z,4.97
2022-10-05T20:21:49.765Z,5.00
2022-10-05T20:24:28.599Z,4.97
2022-10-05T20:27:06.153Z,4.78
2022-10-05T20:29:37.349Z,5.25
2022-10-05T20:32:17.995Z,4.97
2022-10-05T20:34:49.374Z,5.13
2022-10-05T20:37:18.965Z,5.63
2022-10-05T20:39:47.341Z,5.45
2022-10-05T20:42:14.499Z,5.10
2022-10-05T20:44:41.536Z,5.10
2022-10-05T20:47:11.280Z,4.68
2022-10-05T20:49:41.157Z,5.07
2022-10-05T20:52:10.444Z,4.97
2022-10-05T20:54:39.141Z,4.93
2022-10-05T20:57:07.161Z,5.50
2022-10-05T20:59:35.716Z,4.95
2022-10-05T21:02:03.953Z,6.82
2022-10-05T21:04:40.886Z,8.23
2022-10-05T21:07:08.361Z,8.90
2022-10-05T21:09:38.193Z,8.13
2022-10-05T21:12:05.304Z,6.95
2022-10-05T21:14:34.309Z,7.00
2022-10-05T21:17:02.215Z,6.53
2022-10-05T21:19:29.738Z,6.35
2022-10-05T21:21:59.776Z,5.80
2022-10-05T21:24:26.601Z,5.82
2022-10-05T21:26:56.781Z,5.72
2022-10-05T21:29:23.703Z,5.90
2022-10-05T21:31:51.141Z,5.63
2022-10-05T21:34:18.032Z,5.93
2022-10-05T21:36:44.888Z,5.32
2022-10-05T21:39:11.923Z,5.57
2022-10-05T21:41:38.864Z,6.20
2022-10-05T21:44:06.316Z,5.82
2022-10-05T21:46:37.268Z,5.60
2022-10-05T21:49:07.104Z,5.05
2022-10-05T21:51:36.314Z,5.03
2022-10-05T23:07:02.924Z,3.00
2022-10-05T23:09:29.741Z,3.22
2022-10-05T23:11:58.055Z,3.05
2022-10-05T23:14:24.973Z,2.80
2022-10-05T23:16:51.872Z,3.88
2022-10-05T23:19:19.214Z,2.72
2022-10-05T23:21:46.181Z,2.80
2022-10-05T23:24:13.014Z,2.80
2022-10-05T23:26:39.956Z,2.65
2022-10-05T23:29:06.856Z,3.20
2022-10-05T23:31:34.475Z,2.70
2022-10-05T23:34:01.325Z,2.90
2022-10-05T23:36:32.841Z,2.70
2022-10-05T23:39:00.253Z,3.00
2022-10-05T23:41:27.440Z,2.60
2022-10-05T23:43:55.296Z,2.85
2022-10-05T23:46:22.479Z,2.65
2022-10-05T23:48:50.438Z,2.70
2022-10-05T23:51:17.643Z,2.90
2022-10-05T23:53:45.016Z,2.42
2022-10-05T23:56:12.891Z,2.80
2022-10-05T23:58:40.625Z,2.50
